Wells-next-the-Sea, United Kingdom
Current Conditions -  °F | °C
As of 9:50 PM on Saturday 20 Dec 2014 (Local Time) from EGYM Reporting Station
Clear Clear  
Wind Chill: 33°   Ceiling: Unl
Heat Index: 41°   Visibility: 6mi
Dew Point: 37°   Wind: 14mph
Humidity: 87%   Direction: 260°W
Pressure: 30.36"   Gusts: NA
Location:  52.95°N, 0.85°E
Report Text: EGYM 202150Z AUTO 26012KT 9999 NCD 05/03 Q1028
Loading
Personal Weather Stations






























Interactive Weather Map New forecast layout! Learn more

10-Day Weather Forecast

Advertisements
Track Severe Weather on mobile